sensor_id;sensor_type;location;lat;lon;timestamp;temperature;humidity
51996;DHT22;38010;53.264;6.592;2023-04-24T00:00:16;16.10;99.90
51996;DHT22;38010;53.264;6.592;2023-04-24T00:02:43;16.10;99.90
51996;DHT22;38010;53.264;6.592;2023-04-24T00:05:14;16.10;99.90
51996;DHT22;38010;53.264;6.592;2023-04-24T00:07:41;16.10;99.90
51996;DHT22;38010;53.264;6.592;2023-04-24T00:10:07;16.10;99.90
51996;DHT22;38010;53.264;6.592;2023-04-24T00:12:33;16.10;99.90
51996;DHT22;38010;53.264;6.592;2023-04-24T00:14:59;16.10;99.90
51996;DHT22;38010;53.264;6.592;2023-04-24T00:17:25;16.10;99.90
51996;DHT22;38010;53.264;6.592;2023-04-24T00:19:51;16.10;99.90
51996;DHT22;38010;53.264;6.592;2023-04-24T00:22:17;16.10;99.90
51996;DHT22;38010;53.264;6.592;2023-04-24T00:24:43;16.10;99.90
51996;DHT22;38010;53.264;6.592;2023-04-24T00:27:09;16.10;99.90
51996;DHT22;38010;53.264;6.592;2023-04-24T00:29:34;16.10;99.90
51996;DHT22;38010;53.264;6.592;2023-04-24T00:32:00;16.10;99.90
51996;DHT22;38010;53.264;6.592;2023-04-24T00:34:26;16.10;99.90
51996;DHT22;38010;53.264;6.592;2023-04-24T00:36:51;16.10;99.90
51996;DHT22;38010;53.264;6.592;2023-04-24T00:39:21;16.00;99.90
51996;DHT22;38010;53.264;6.592;2023-04-24T00:41:47;16.10;99.90
51996;DHT22;38010;53.264;6.592;2023-04-24T00:44:14;16.10;99.90
51996;DHT22;38010;53.264;6.592;2023-04-24T00:46:40;16.00;99.90
51996;DHT22;38010;53.264;6.592;2023-04-24T00:49:06;16.00;99.90
51996;DHT22;38010;53.264;6.592;2023-04-24T00:51:32;16.00;99.90
51996;DHT22;38010;53.264;6.592;2023-04-24T00:54:01;16.00;99.90
51996;DHT22;38010;53.264;6.592;2023-04-24T00:56:27;16.00;99.90
51996;DHT22;38010;53.264;6.592;2023-04-24T00:58:54;16.00;99.90
51996;DHT22;38010;53.264;6.592;2023-04-24T01:01:20;16.00;99.90
51996;DHT22;38010;53.264;6.592;2023-04-24T01:03:47;16.00;99.90
51996;DHT22;38010;53.264;6.592;2023-04-24T01:06:14;16.00;99.90
51996;DHT22;38010;53.264;6.592;2023-04-24T01:08:41;16.00;99.90
51996;DHT22;38010;53.264;6.592;2023-04-24T01:11:07;16.00;99.90
51996;DHT22;38010;53.264;6.592;2023-04-24T01:13:33;16.00;99.90
51996;DHT22;38010;53.264;6.592;2023-04-24T01:16:00;16.00;99.90
51996;DHT22;38010;53.264;6.592;2023-04-24T01:18:26;16.00;99.90
51996;DHT22;38010;53.264;6.592;2023-04-24T01:20:57;16.00;99.90
51996;DHT22;38010;53.264;6.592;2023-04-24T01:23:24;16.00;99.90
51996;DHT22;38010;53.264;6.592;2023-04-24T01:25:50;16.00;99.90
51996;DHT22;38010;53.264;6.592;2023-04-24T01:28:17;16.00;99.90
51996;DHT22;38010;53.264;6.592;2023-04-24T01:30:43;16.00;99.90
51996;DHT22;38010;53.264;6.592;2023-04-24T01:33:09;16.00;99.90
51996;DHT22;38010;53.264;6.592;2023-04-24T01:35:36;16.00;99.90
51996;DHT22;38010;53.264;6.592;2023-04-24T01:38:03;16.00;99.90
51996;DHT22;38010;53.264;6.592;2023-04-24T01:40:29;16.00;99.90
51996;DHT22;38010;53.264;6.592;2023-04-24T01:42:55;16.00;99.90
51996;DHT22;38010;53.264;6.592;2023-04-24T01:45:21;16.00;99.90
51996;DHT22;38010;53.264;6.592;2023-04-24T01:47:47;16.00;99.90
51996;DHT22;38010;53.264;6.592;2023-04-24T01:50:13;16.00;99.90
51996;DHT22;38010;53.264;6.592;2023-04-24T01:52:38;16.00;99.90
51996;DHT22;38010;53.264;6.592;2023-04-24T01:55:05;16.00;99.90
51996;DHT22;38010;53.264;6.592;2023-04-24T01:57:33;16.00;99.90
51996;DHT22;38010;53.264;6.592;2023-04-24T01:59:59;16.00;99.90
51996;DHT22;38010;53.264;6.592;2023-04-24T02:02:25;16.00;99.90
51996;DHT22;38010;53.264;6.592;2023-04-24T02:04:56;16.00;99.90
51996;DHT22;38010;53.264;6.592;2023-04-24T02:07:22;16.00;99.90
51996;DHT22;38010;53.264;6.592;2023-04-24T02:09:48;16.00;99.90
51996;DHT22;38010;53.264;6.592;2023-04-24T02:12:17;16.00;99.90
51996;DHT22;38010;53.264;6.592;2023-04-24T02:14:43;16.00;99.90
51996;DHT22;38010;53.264;6.592;2023-04-24T02:17:09;16.00;99.90
51996;DHT22;38010;53.264;6.592;2023-04-24T02:19:35;16.00;99.90
51996;DHT22;38010;53.264;6.592;2023-04-24T02:22:00;16.00;99.90
51996;DHT22;38010;53.264;6.592;2023-04-24T02:24:26;15.90;99.90
51996;DHT22;38010;53.264;6.592;2023-04-24T02:26:52;15.90;99.90
51996;DHT22;38010;53.264;6.592;2023-04-24T02:29:18;15.90;99.90
51996;DHT22;38010;53.264;6.592;2023-04-24T02:31:43;15.90;99.90
51996;DHT22;38010;53.264;6.592;2023-04-24T02:34:09;15.90;99.90
51996;DHT22;38010;53.264;6.592;2023-04-24T02:36:35;15.90;99.90
51996;DHT22;38010;53.264;6.592;2023-04-24T02:39:00;15.90;99.90
51996;DHT22;38010;53.264;6.592;2023-04-24T02:41:26;15.90;99.90
51996;DHT22;38010;53.264;6.592;2023-04-24T02:43:57;15.90;99.90
51996;DHT22;38010;53.264;6.592;2023-04-24T02:46:24;15.90;99.90
51996;DHT22;38010;53.264;6.592;2023-04-24T02:48:49;15.90;99.90
51996;DHT22;38010;53.264;6.592;2023-04-24T02:51:15;15.90;99.90
51996;DHT22;38010;53.264;6.592;2023-04-24T02:53:41;15.90;99.90
51996;DHT22;38010;53.264;6.592;2023-04-24T02:56:07;15.90;99.90
51996;DHT22;38010;53.264;6.592;2023-04-24T02:58:32;15.90;99.90
51996;DHT22;38010;53.264;6.592;2023-04-24T03:00:58;15.90;99.90
51996;DHT22;38010;53.264;6.592;2023-04-24T03:03:24;15.90;99.90
51996;DHT22;38010;53.264;6.592;2023-04-24T03:05:49;15.90;99.90
51996;DHT22;38010;53.264;6.592;2023-04-24T03:08:15;15.90;99.90
51996;DHT22;38010;53.264;6.592;2023-04-24T03:10:41;15.90;99.90
51996;DHT22;38010;53.264;6.592;2023-04-24T03:13:07;15.90;99.90
51996;DHT22;38010;53.264;6.592;2023-04-24T03:15:32;15.90;99.90
51996;DHT22;38010;53.264;6.592;2023-04-24T03:17:58;15.90;99.90
51996;DHT22;38010;53.264;6.592;2023-04-24T03:20:25;15.80;99.90
51996;DHT22;38010;53.264;6.592;2023-04-24T03:22:51;15.90;99.90
51996;DHT22;38010;53.264;6.592;2023-04-24T03:25:17;15.90;99.90
51996;DHT22;38010;53.264;6.592;2023-04-24T03:27:43;15.90;99.90
51996;DHT22;38010;53.264;6.592;2023-04-24T03:30:09;15.90;99.90
51996;DHT22;38010;53.264;6.592;2023-04-24T03:32:35;15.90;99.90
51996;DHT22;38010;53.264;6.592;2023-04-24T03:35:01;15.80;99.90
51996;DHT22;38010;53.264;6.592;2023-04-24T03:37:27;15.80;99.90
51996;DHT22;38010;53.264;6.592;2023-04-24T03:39:53;15.80;99.90
51996;DHT22;38010;53.264;6.592;2023-04-24T03:42:18;15.80;99.90
51996;DHT22;38010;53.264;6.592;2023-04-24T03:44:44;15.80;99.90
51996;DHT22;38010;53.264;6.592;2023-04-24T03:47:10;15.80;99.90
51996;DHT22;38010;53.264;6.592;2023-04-24T03:49:35;15.90;99.90
51996;DHT22;38010;53.264;6.592;2023-04-24T03:52:01;15.80;99.90
51996;DHT22;38010;53.264;6.592;2023-04-24T03:54:27;15.80;99.90
51996;DHT22;38010;53.264;6.592;2023-04-24T03:56:53;15.80;99.90
51996;DHT22;38010;53.264;6.592;2023-04-24T03:59:19;15.80;99.90
51996;DHT22;38010;53.264;6.592;2023-04-24T04:01:44;15.80;99.90
51996;DHT22;38010;53.264;6.592;2023-04-24T04:04:11;15.80;99.90
51996;DHT22;38010;53.264;6.592;2023-04-24T04:06:37;15.80;99.90
51996;DHT22;38010;53.264;6.592;2023-04-24T04:09:03;15.90;99.90
51996;DHT22;38010;53.264;6.592;2023-04-24T04:11:29;16.00;99.90
51996;DHT22;38010;53.264;6.592;2023-04-24T04:13:56;16.10;99.90
51996;DHT22;38010;53.264;6.592;2023-04-24T04:16:22;16.20;99.90
51996;DHT22;38010;53.264;6.592;2023-04-24T04:18:48;16.20;99.90
51996;DHT22;38010;53.264;6.592;2023-04-24T04:21:14;16.40;99.90
51996;DHT22;38010;53.264;6.592;2023-04-24T04:23:40;16.40;99.90
51996;DHT22;38010;53.264;6.592;2023-04-24T04:26:05;16.50;99.90
51996;DHT22;38010;53.264;6.592;2023-04-24T04:28:31;16.60;99.90
51996;DHT22;38010;53.264;6.592;2023-04-24T04:30:58;16.60;99.90
51996;DHT22;38010;53.264;6.592;2023-04-24T04:33:24;16.70;99.90
51996;DHT22;38010;53.264;6.592;2023-04-24T04:35:50;16.80;99.90
51996;DHT22;38010;53.264;6.592;2023-04-24T04:38:22;16.90;99.90
51996;DHT22;38010;53.264;6.592;2023-04-24T04:40:48;16.90;99.90
51996;DHT22;38010;53.264;6.592;2023-04-24T04:43:14;16.90;99.90
51996;DHT22;38010;53.264;6.592;2023-04-24T04:45:43;16.90;99.90
51996;DHT22;38010;53.264;6.592;2023-04-24T04:48:09;17.00;99.90
51996;DHT22;38010;53.264;6.592;2023-04-24T04:50:38;17.00;99.90
51996;DHT22;38010;53.264;6.592;2023-04-24T04:53:04;17.00;99.90
51996;DHT22;38010;53.264;6.592;2023-04-24T04:55:29;17.00;99.90
51996;DHT22;38010;53.264;6.592;2023-04-24T04:57:55;17.10;99.90
51996;DHT22;38010;53.264;6.592;2023-04-24T05:00:22;17.10;99.90
51996;DHT22;38010;53.264;6.592;2023-04-24T05:02:50;17.10;99.90
51996;DHT22;38010;53.264;6.592;2023-04-24T05:05:17;17.10;99.90
51996;DHT22;38010;53.264;6.592;2023-04-24T05:07:43;17.10;99.90
51996;DHT22;38010;53.264;6.592;2023-04-24T05:10:09;17.10;99.90
51996;DHT22;38010;53.264;6.592;2023-04-24T05:12:36;17.20;99.90
51996;DHT22;38010;53.264;6.592;2023-04-24T05:15:02;17.20;99.90
51996;DHT22;38010;53.264;6.592;2023-04-24T05:17:28;17.10;99.90
51996;DHT22;38010;53.264;6.592;2023-04-24T05:19:54;17.20;99.90
51996;DHT22;38010;53.264;6.592;2023-04-24T05:22:20;17.20;99.90
51996;DHT22;38010;53.264;6.592;2023-04-24T05:24:47;17.30;99.90
51996;DHT22;38010;53.264;6.592;2023-04-24T05:27:13;17.30;99.90
51996;DHT22;38010;53.264;6.592;2023-04-24T05:29:39;17.30;99.90
51996;DHT22;38010;53.264;6.592;2023-04-24T05:32:05;17.40;99.90
51996;DHT22;38010;53.264;6.592;2023-04-24T05:34:31;17.40;99.90
51996;DHT22;38010;53.264;6.592;2023-04-24T05:36:57;17.40;99.90
51996;DHT22;38010;53.264;6.592;2023-04-24T05:39:23;17.40;99.90
51996;DHT22;38010;53.264;6.592;2023-04-24T05:41:50;17.30;99.90
51996;DHT22;38010;53.264;6.592;2023-04-24T05:44:16;17.20;99.90
51996;DHT22;38010;53.264;6.592;2023-04-24T05:46:42;17.20;99.90
51996;DHT22;38010;53.264;6.592;2023-04-24T05:49:08;17.10;99.90
51996;DHT22;38010;53.264;6.592;2023-04-24T05:51:33;17.00;99.90
51996;DHT22;38010;53.264;6.592;2023-04-24T05:53:59;17.00;99.90
51996;DHT22;38010;53.264;6.592;2023-04-24T05:56:25;16.90;99.90
51996;DHT22;38010;53.264;6.592;2023-04-24T05:58:51;16.90;99.90
51996;DHT22;38010;53.264;6.592;2023-04-24T06:01:17;16.80;99.90
51996;DHT22;38010;53.264;6.592;2023-04-24T06:03:43;16.80;99.90
51996;DHT22;38010;53.264;6.592;2023-04-24T06:06:09;16.70;99.90
51996;DHT22;38010;53.264;6.592;2023-04-24T06:08:35;16.70;99.90
51996;DHT22;38010;53.264;6.592;2023-04-24T06:11:01;16.60;99.90
51996;DHT22;38010;53.264;6.592;2023-04-24T06:13:27;16.70;99.90
51996;DHT22;38010;53.264;6.592;2023-04-24T06:15:53;16.60;99.90
51996;DHT22;38010;53.264;6.592;2023-04-24T06:18:20;16.60;99.90
51996;DHT22;38010;53.264;6.592;2023-04-24T06:20:46;16.60;99.90
51996;DHT22;38010;53.264;6.592;2023-04-24T06:23:12;16.60;99.90
51996;DHT22;38010;53.264;6.592;2023-04-24T06:25:38;16.60;99.90
51996;DHT22;38010;53.264;6.592;2023-04-24T06:28:04;16.50;99.90
51996;DHT22;38010;53.264;6.592;2023-04-24T06:30:30;16.50;99.90
51996;DHT22;38010;53.264;6.592;2023-04-24T06:32:56;16.50;99.90
51996;DHT22;38010;53.264;6.592;2023-04-24T06:35:22;16.40;99.90
51996;DHT22;38010;53.264;6.592;2023-04-24T06:37:47;16.40;99.90
51996;DHT22;38010;53.264;6.592;2023-04-24T06:40:13;16.40;99.90
51996;DHT22;38010;53.264;6.592;2023-04-24T06:42:39;16.40;99.90
51996;DHT22;38010;53.264;6.592;2023-04-24T06:45:05;16.40;99.90
51996;DHT22;38010;53.264;6.592;2023-04-24T06:47:31;16.40;99.90
51996;DHT22;38010;53.264;6.592;2023-04-24T06:49:57;16.30;99.90
51996;DHT22;38010;53.264;6.592;2023-04-24T06:52:23;16.30;99.90
51996;DHT22;38010;53.264;6.592;2023-04-24T06:54:49;16.30;99.90
51996;DHT22;38010;53.264;6.592;2023-04-24T06:57:14;16.30;99.90
51996;DHT22;38010;53.264;6.592;2023-04-24T06:59:42;16.30;99.90
51996;DHT22;38010;53.264;6.592;2023-04-24T07:02:07;16.30;99.90
51996;DHT22;38010;53.264;6.592;2023-04-24T07:04:33;16.30;99.90
51996;DHT22;38010;53.264;6.592;2023-04-24T07:06:59;16.20;99.90
51996;DHT22;38010;53.264;6.592;2023-04-24T07:09:25;16.20;99.90
51996;DHT22;38010;53.264;6.592;2023-04-24T07:11:52;16.20;99.90
51996;DHT22;38010;53.264;6.592;2023-04-24T07:14:19;16.20;99.90
51996;DHT22;38010;53.264;6.592;2023-04-24T07:16:45;16.20;99.90
51996;DHT22;38010;53.264;6.592;2023-04-24T07:19:12;16.10;99.90
51996;DHT22;38010;53.264;6.592;2023-04-24T07:21:39;16.10;99.90
51996;DHT22;38010;53.264;6.592;2023-04-24T07:24:05;16.10;99.90
51996;DHT22;38010;53.264;6.592;2023-04-24T07:26:31;16.10;99.90
51996;DHT22;38010;53.264;6.592;2023-04-24T07:28:57;16.10;99.90
51996;DHT22;38010;53.264;6.592;2023-04-24T07:31:23;16.10;99.90
51996;DHT22;38010;53.264;6.592;2023-04-24T07:33:49;16.10;99.90
51996;DHT22;38010;53.264;6.592;2023-04-24T07:36:15;16.10;99.90
51996;DHT22;38010;53.264;6.592;2023-04-24T07:38:45;16.10;99.90
51996;DHT22;38010;53.264;6.592;2023-04-24T07:41:11;16.10;99.90
51996;DHT22;38010;53.264;6.592;2023-04-24T07:43:37;16.00;99.90
51996;DHT22;38010;53.264;6.592;2023-04-24T07:46:02;16.10;99.90
51996;DHT22;38010;53.264;6.592;2023-04-24T07:48:28;16.00;99.90
51996;DHT22;38010;53.264;6.592;2023-04-24T07:50:54;16.10;99.90
51996;DHT22;38010;53.264;6.592;2023-04-24T07:53:20;16.00;99.90
51996;DHT22;38010;53.264;6.592;2023-04-24T07:55:46;16.00;99.90
51996;DHT22;38010;53.264;6.592;2023-04-24T07:58:11;16.00;99.90
51996;DHT22;38010;53.264;6.592;2023-04-24T08:00:37;16.00;99.90
51996;DHT22;38010;53.264;6.592;2023-04-24T08:03:03;16.00;99.90
51996;DHT22;38010;53.264;6.592;2023-04-24T08:05:29;16.00;99.90
51996;DHT22;38010;53.264;6.592;2023-04-24T08:07:55;16.00;99.90
51996;DHT22;38010;53.264;6.592;2023-04-24T08:10:22;16.00;99.90
51996;DHT22;38010;53.264;6.592;2023-04-24T08:12:49;16.00;99.90
51996;DHT22;38010;53.264;6.592;2023-04-24T08:15:14;16.00;99.90
51996;DHT22;38010;53.264;6.592;2023-04-24T08:17:40;16.00;99.90
51996;DHT22;38010;53.264;6.592;2023-04-24T08:20:07;16.00;99.90
51996;DHT22;38010;53.264;6.592;2023-04-24T08:22:41;16.00;99.90
51996;DHT22;38010;53.264;6.592;2023-04-24T08:25:07;16.00;99.90
51996;DHT22;38010;53.264;6.592;2023-04-24T08:27:33;16.00;99.90
51996;DHT22;38010;53.264;6.592;2023-04-24T08:29:59;16.00;99.90
51996;DHT22;38010;53.264;6.592;2023-04-24T08:32:26;16.00;99.90
51996;DHT22;38010;53.264;6.592;2023-04-24T08:34:55;15.90;99.90
51996;DHT22;38010;53.264;6.592;2023-04-24T08:37:26;15.90;99.90
51996;DHT22;38010;53.264;6.592;2023-04-24T08:39:52;15.90;99.90
51996;DHT22;38010;53.264;6.592;2023-04-24T08:42:19;15.90;99.90
51996;DHT22;38010;53.264;6.592;2023-04-24T08:44:47;15.90;99.90
51996;DHT22;38010;53.264;6.592;2023-04-24T08:47:15;15.90;99.90
51996;DHT22;38010;53.264;6.592;2023-04-24T08:49:41;15.90;99.90
51996;DHT22;38010;53.264;6.592;2023-04-24T08:52:08;15.90;99.90
51996;DHT22;38010;53.264;6.592;2023-04-24T08:54:35;15.90;99.90
51996;DHT22;38010;53.264;6.592;2023-04-24T08:57:02;15.90;99.90
51996;DHT22;38010;53.264;6.592;2023-04-24T08:59:32;15.90;99.90
51996;DHT22;38010;53.264;6.592;2023-04-24T09:02:00;15.90;99.90
51996;DHT22;38010;53.264;6.592;2023-04-24T09:04:29;15.80;99.90
51996;DHT22;38010;53.264;6.592;2023-04-24T09:06:56;15.80;99.90
51996;DHT22;38010;53.264;6.592;2023-04-24T09:09:23;15.80;99.90
51996;DHT22;38010;53.264;6.592;2023-04-24T09:11:51;15.80;99.90
51996;DHT22;38010;53.264;6.592;2023-04-24T09:14:19;15.80;99.90
51996;DHT22;38010;53.264;6.592;2023-04-24T09:16:46;15.80;99.90
51996;DHT22;38010;53.264;6.592;2023-04-24T09:19:13;15.80;99.90
51996;DHT22;38010;53.264;6.592;2023-04-24T09:21:38;15.80;99.90
51996;DHT22;38010;53.264;6.592;2023-04-24T09:24:17;15.80;99.90
51996;DHT22;38010;53.264;6.592;2023-04-24T09:26:44;15.80;99.90
51996;DHT22;38010;53.264;6.592;2023-04-24T09:29:17;15.80;99.90
51996;DHT22;38010;53.264;6.592;2023-04-24T09:31:44;15.80;99.90
51996;DHT22;38010;53.264;6.592;2023-04-24T09:34:11;15.80;99.90
51996;DHT22;38010;53.264;6.592;2023-04-24T09:36:38;15.80;99.90
51996;DHT22;38010;53.264;6.592;2023-04-24T09:39:11;15.80;99.90
51996;DHT22;38010;53.264;6.592;2023-04-24T09:41:53;15.80;99.90
51996;DHT22;38010;53.264;6.592;2023-04-24T09:44:22;15.80;99.90
51996;DHT22;38010;53.264;6.592;2023-04-24T09:47:09;15.80;99.90
51996;DHT22;38010;53.264;6.592;2023-04-24T09:49:35;15.80;99.90
51996;DHT22;38010;53.264;6.592;2023-04-24T09:52:11;15.80;99.90
51996;DHT22;38010;53.264;6.592;2023-04-24T09:54:38;15.80;99.90
51996;DHT22;38010;53.264;6.592;2023-04-24T09:57:04;15.80;99.90
51996;DHT22;38010;53.264;6.592;2023-04-24T09:59:30;15.80;99.90
51996;DHT22;38010;53.264;6.592;2023-04-24T10:01:56;15.80;99.90
51996;DHT22;38010;53.264;6.592;2023-04-24T10:04:27;15.80;99.90
51996;DHT22;38010;53.264;6.592;2023-04-24T10:06:55;15.80;99.90
51996;DHT22;38010;53.264;6.592;2023-04-24T10:09:24;15.80;99.90
51996;DHT22;38010;53.264;6.592;2023-04-24T10:11:52;15.80;99.90
51996;DHT22;38010;53.264;6.592;2023-04-24T10:14:23;15.80;99.90
51996;DHT22;38010;53.264;6.592;2023-04-24T10:16:52;15.80;99.90
51996;DHT22;38010;53.264;6.592;2023-04-24T10:19:18;15.80;99.90
51996;DHT22;38010;53.264;6.592;2023-04-24T10:21:44;15.80;99.90
51996;DHT22;38010;53.264;6.592;2023-04-24T10:24:17;15.90;99.90
51996;DHT22;38010;53.264;6.592;2023-04-24T10:26:44;15.90;99.90
51996;DHT22;38010;53.264;6.592;2023-04-24T10:29:12;15.90;99.90
51996;DHT22;38010;53.264;6.592;2023-04-24T10:31:39;15.90;99.90
51996;DHT22;38010;53.264;6.592;2023-04-24T10:34:06;15.90;99.90
51996;DHT22;38010;53.264;6.592;2023-04-24T10:36:36;16.00;99.90
51996;DHT22;38010;53.264;6.592;2023-04-24T10:39:08;16.00;99.90
51996;DHT22;38010;53.264;6.592;2023-04-24T10:41:37;16.00;99.90
51996;DHT22;38010;53.264;6.592;2023-04-24T10:44:08;16.00;99.90
51996;DHT22;38010;53.264;6.592;2023-04-24T10:46:35;16.00;99.90
51996;DHT22;38010;53.264;6.592;2023-04-24T10:49:05;16.00;99.90
51996;DHT22;38010;53.264;6.592;2023-04-24T10:51:50;16.00;99.90
51996;DHT22;38010;53.264;6.592;2023-04-24T10:54:48;16.00;99.90
51996;DHT22;38010;53.264;6.592;2023-04-24T11:00:10;16.00;99.90
51996;DHT22;38010;53.264;6.592;2023-04-24T11:02:38;16.00;99.90
51996;DHT22;38010;53.264;6.592;2023-04-24T11:05:06;16.00;99.90
51996;DHT22;38010;53.264;6.592;2023-04-24T11:10:46;16.00;99.90
51996;DHT22;38010;53.264;6.592;2023-04-24T11:13:16;16.00;99.90
51996;DHT22;38010;53.264;6.592;2023-04-24T11:15:42;16.10;99.90
51996;DHT22;38010;53.264;6.592;2023-04-24T11:18:15;16.00;99.90
51996;DHT22;38010;53.264;6.592;2023-04-24T11:20:45;16.00;99.90
51996;DHT22;38010;53.264;6.592;2023-04-24T11:23:13;16.00;99.90
51996;DHT22;38010;53.264;6.592;2023-04-24T11:25:39;16.00;99.90
51996;DHT22;38010;53.264;6.592;2023-04-24T11:28:07;16.00;99.90
51996;DHT22;38010;53.264;6.592;2023-04-24T11:30:33;16.00;99.90
51996;DHT22;38010;53.264;6.592;2023-04-24T11:33:04;16.00;99.90
51996;DHT22;38010;53.264;6.592;2023-04-24T11:35:35;16.00;99.90
51996;DHT22;38010;53.264;6.592;2023-04-24T11:38:03;16.00;99.90
51996;DHT22;38010;53.264;6.592;2023-04-24T11:40:29;16.00;99.90
51996;DHT22;38010;53.264;6.592;2023-04-24T11:42:55;16.00;99.90
51996;DHT22;38010;53.264;6.592;2023-04-24T11:45:23;16.00;99.90
51996;DHT22;38010;53.264;6.592;2023-04-24T11:47:49;15.90;99.90
51996;DHT22;38010;53.264;6.592;2023-04-24T11:50:17;15.90;99.90
51996;DHT22;38010;53.264;6.592;2023-04-24T11:52:46;15.90;99.90
51996;DHT22;38010;53.264;6.592;2023-04-24T11:57:45;15.90;99.90
51996;DHT22;38010;53.264;6.592;2023-04-24T12:00:19;15.90;99.90
51996;DHT22;38010;53.264;6.592;2023-04-24T12:02:46;15.90;99.90
51996;DHT22;38010;53.264;6.592;2023-04-24T12:05:25;15.80;99.90
51996;DHT22;38010;53.264;6.592;2023-04-24T12:07:52;15.80;99.90
51996;DHT22;38010;53.264;6.592;2023-04-24T12:10:22;15.80;99.90
51996;DHT22;38010;53.264;6.592;2023-04-24T12:12:48;15.80;99.90
51996;DHT22;38010;53.264;6.592;2023-04-24T12:15:17;15.80;99.90
51996;DHT22;38010;53.264;6.592;2023-04-24T12:17:44;15.80;99.90
51996;DHT22;38010;53.264;6.592;2023-04-24T12:20:11;15.80;99.90
51996;DHT22;38010;53.264;6.592;2023-04-24T12:22:57;15.80;99.90
51996;DHT22;38010;53.264;6.592;2023-04-24T12:25:25;15.80;99.90
51996;DHT22;38010;53.264;6.592;2023-04-24T12:30:33;15.80;99.90
51996;DHT22;38010;53.264;6.592;2023-04-24T12:33:00;15.80;99.90
51996;DHT22;38010;53.264;6.592;2023-04-24T12:35:29;15.80;99.90
51996;DHT22;38010;53.264;6.592;2023-04-24T12:37:55;15.80;99.90
51996;DHT22;38010;53.264;6.592;2023-04-24T12:40:22;15.80;99.90
51996;DHT22;38010;53.264;6.592;2023-04-24T12:42:51;15.90;99.90
51996;DHT22;38010;53.264;6.592;2023-04-24T12:45:18;15.90;99.90
51996;DHT22;38010;53.264;6.592;2023-04-24T12:47:45;15.90;99.90
51996;DHT22;38010;53.264;6.592;2023-04-24T12:50:13;15.90;99.90
51996;DHT22;38010;53.264;6.592;2023-04-24T12:52:39;15.90;99.90
51996;DHT22;38010;53.264;6.592;2023-04-24T12:55:05;15.90;99.90
51996;DHT22;38010;53.264;6.592;2023-04-24T12:57:34;15.90;99.90
51996;DHT22;38010;53.264;6.592;2023-04-24T13:00:00;15.90;99.90
51996;DHT22;38010;53.264;6.592;2023-04-24T13:02:28;15.90;99.90
51996;DHT22;38010;53.264;6.592;2023-04-24T13:04:55;15.80;99.90
51996;DHT22;38010;53.264;6.592;2023-04-24T13:07:21;15.80;99.90
51996;DHT22;38010;53.264;6.592;2023-04-24T13:09:48;15.80;99.90
51996;DHT22;38010;53.264;6.592;2023-04-24T13:12:14;15.80;99.90
51996;DHT22;38010;53.264;6.592;2023-04-24T13:14:40;15.80;99.90
51996;DHT22;38010;53.264;6.592;2023-04-24T13:17:06;15.80;99.90
51996;DHT22;38010;53.264;6.592;2023-04-24T13:19:36;15.70;99.90
51996;DHT22;38010;53.264;6.592;2023-04-24T13:22:03;15.70;99.90
51996;DHT22;38010;53.264;6.592;2023-04-24T13:24:29;15.70;99.90
51996;DHT22;38010;53.264;6.592;2023-04-24T13:26:55;15.70;99.90
51996;DHT22;38010;53.264;6.592;2023-04-24T13:29:22;15.70;99.90
51996;DHT22;38010;53.264;6.592;2023-04-24T13:31:53;15.70;99.90
51996;DHT22;38010;53.264;6.592;2023-04-24T13:34:21;15.70;99.90
51996;DHT22;38010;53.264;6.592;2023-04-24T13:36:47;15.70;99.90
51996;DHT22;38010;53.264;6.592;2023-04-24T13:39:13;15.70;99.90
51996;DHT22;38010;53.264;6.592;2023-04-24T13:41:39;15.70;99.90
51996;DHT22;38010;53.264;6.592;2023-04-24T13:44:06;15.70;99.90
51996;DHT22;38010;53.264;6.592;2023-04-24T13:46:32;15.70;99.90
51996;DHT22;38010;53.264;6.592;2023-04-24T13:48:58;15.70;99.90
51996;DHT22;38010;53.264;6.592;2023-04-24T13:51:25;15.70;99.90
51996;DHT22;38010;53.264;6.592;2023-04-24T13:53:53;15.70;99.90
51996;DHT22;38010;53.264;6.592;2023-04-24T13:56:19;15.70;99.90
51996;DHT22;38010;53.264;6.592;2023-04-24T13:58:45;15.70;99.90
51996;DHT22;38010;53.264;6.592;2023-04-24T14:01:12;15.70;99.90
51996;DHT22;38010;53.264;6.592;2023-04-24T14:03:38;15.70;99.90
51996;DHT22;38010;53.264;6.592;2023-04-24T14:06:04;15.70;99.90
51996;DHT22;38010;53.264;6.592;2023-04-24T14:08:32;15.70;99.90
51996;DHT22;38010;53.264;6.592;2023-04-24T14:10:57;15.60;99.90
51996;DHT22;38010;53.264;6.592;2023-04-24T14:13:23;15.60;99.90
51996;DHT22;38010;53.264;6.592;2023-04-24T14:15:49;15.60;99.90
51996;DHT22;38010;53.264;6.592;2023-04-24T14:18:15;15.60;99.90
51996;DHT22;38010;53.264;6.592;2023-04-24T14:20:41;15.60;99.90
51996;DHT22;38010;53.264;6.592;2023-04-24T14:23:06;15.70;99.90
51996;DHT22;38010;53.264;6.592;2023-04-24T14:25:33;15.60;99.90
51996;DHT22;38010;53.264;6.592;2023-04-24T14:27:59;15.60;99.90
51996;DHT22;38010;53.264;6.592;2023-04-24T14:30:25;15.60;99.90
51996;DHT22;38010;53.264;6.592;2023-04-24T14:32:50;15.60;99.90
51996;DHT22;38010;53.264;6.592;2023-04-24T14:35:16;15.60;99.90
51996;DHT22;38010;53.264;6.592;2023-04-24T14:37:42;15.60;99.90
51996;DHT22;38010;53.264;6.592;2023-04-24T14:40:09;15.60;99.90
51996;DHT22;38010;53.264;6.592;2023-04-24T14:42:35;15.60;99.90
51996;DHT22;38010;53.264;6.592;2023-04-24T14:45:01;15.60;99.90
51996;DHT22;38010;53.264;6.592;2023-04-24T14:47:27;15.60;99.90
51996;DHT22;38010;53.264;6.592;2023-04-24T14:49:53;15.50;99.90
51996;DHT22;38010;53.264;6.592;2023-04-24T14:52:18;15.50;99.90
51996;DHT22;38010;53.264;6.592;2023-04-24T14:54:45;15.50;99.90
51996;DHT22;38010;53.264;6.592;2023-04-24T14:57:11;15.50;99.90
51996;DHT22;38010;53.264;6.592;2023-04-24T14:59:37;15.50;99.90
51996;DHT22;38010;53.264;6.592;2023-04-24T15:02:02;15.50;99.90
51996;DHT22;38010;53.264;6.592;2023-04-24T15:04:28;15.50;99.90
51996;DHT22;38010;53.264;6.592;2023-04-24T15:06:55;15.40;99.90
51996;DHT22;38010;53.264;6.592;2023-04-24T15:09:21;15.40;99.90
51996;DHT22;38010;53.264;6.592;2023-04-24T15:11:48;15.40;99.90
51996;DHT22;38010;53.264;6.592;2023-04-24T15:14:14;15.40;99.90
51996;DHT22;38010;53.264;6.592;2023-04-24T15:16:40;15.40;99.90
51996;DHT22;38010;53.264;6.592;2023-04-24T15:19:06;15.40;99.90
51996;DHT22;38010;53.264;6.592;2023-04-24T15:21:32;15.40;99.90
51996;DHT22;38010;53.264;6.592;2023-04-24T15:23:58;15.40;99.90
51996;DHT22;38010;53.264;6.592;2023-04-24T15:26:24;15.40;99.90
51996;DHT22;38010;53.264;6.592;2023-04-24T15:28:51;15.40;99.90
51996;DHT22;38010;53.264;6.592;2023-04-24T15:31:18;15.40;99.90
51996;DHT22;38010;53.264;6.592;2023-04-24T15:33:44;15.40;99.90
51996;DHT22;38010;53.264;6.592;2023-04-24T15:36:10;15.40;99.90
51996;DHT22;38010;53.264;6.592;2023-04-24T15:38:36;15.40;99.90